Time;durP1;ratioP1;P1;durP2;ratioP2;P2;SDS_P1;SDS_P2;PMS_P1;PMS_P2;Temp;Humidity;BMP_temperature;BMP_pressure;BME280_temperature;BME280_humidity;BME280_pressure;Samples;Min_cycle;Max_cycle;Signal;HPM_P1;HPM_P2
2022/03/20 00:01:38;;;;;;;22.27;14.80;;;;;;;;;;7348828;19;20519;-79
2022/03/20 00:04:08;;;;;;;20.67;14.15;;;;;;;;;;7349031;19;21686;-79
2022/03/20 00:06:40;;;;;;;32.35;16.15;;;;;;;;;;7349293;19;20152;-79
2022/03/20 00:09:09;;;;;;;22.52;15.32;;;;;;;;;;7350066;19;20187;-79
2022/03/20 00:11:42;;;;;;;22.05;15.68;;;;;;;;;;7354270;19;20147;-79
2022/03/20 00:14:11;;;;;;;21.52;13.88;;;;;;;;;;7350416;19;20135;-79
2022/03/20 00:16:41;;;;;;;21.45;14.35;;;;;;;;;;7345492;19;20143;-79
2022/03/20 00:19:10;;;;;;;23.52;14.23;;;;;;;;;;7347821;19;20140;-79
2022/03/20 00:21:42;;;;;;;20.83;14.93;;;;;;;;;;7346118;19;22083;-79
2022/03/20 00:24:12;;;;;;;22.88;14.38;;;;;;;;;;7350082;19;20219;-78
2022/03/20 00:26:44;;;;;;;24.90;15.27;;;;;;;;;;7357769;19;20153;-78
2022/03/20 00:29:15;;;;;;;23.70;13.95;;;;;;;;;;7343490;19;20139;-79
2022/03/20 00:31:44;;;;;;;23.75;15.27;;;;;;;;;;7346721;19;20135;-78
2022/03/20 00:34:14;;;;;;;22.55;15.20;;;;;;;;;;7347930;19;20168;-78
2022/03/20 00:36:44;;;;;;;21.15;14.27;;;;;;;;;;7376239;19;20123;-80
2022/03/20 00:39:13;;;;;;;21.00;14.48;;;;;;;;;;7352945;19;20872;-78
2022/03/20 00:41:45;;;;;;;20.35;14.20;;;;;;;;;;7350556;19;20261;-78
2022/03/20 00:44:15;;;;;;;20.98;13.95;;;;;;;;;;7351215;19;20144;-78
2022/03/20 00:46:45;;;;;;;23.17;14.50;;;;;;;;;;7354233;19;20147;-77
2022/03/20 00:49:17;;;;;;;19.30;13.70;;;;;;;;;;7349966;19;20157;-78
2022/03/20 00:51:47;;;;;;;17.33;13.30;;;;;;;;;;7344190;19;20135;-78
2022/03/20 00:54:16;;;;;;;22.35;14.13;;;;;;;;;;7363065;19;20824;-78
2022/03/20 00:56:49;;;;;;;21.10;15.20;;;;;;;;;;7355647;19;21223;-77
2022/03/20 00:59:18;;;;;;;19.35;15.02;;;;;;;;;;7341625;19;20248;-77
2022/03/20 01:01:48;;;;;;;18.48;13.48;;;;;;;;;;7346657;19;21087;-78
2022/03/20 01:04:18;;;;;;;23.15;13.55;;;;;;;;;;7343159;19;20151;-78
2022/03/20 01:06:47;;;;;;;22.90;14.48;;;;;;;;;;7344180;19;20147;-80
2022/03/20 01:09:17;;;;;;;20.27;13.98;;;;;;;;;;7358583;19;20139;-80
2022/03/20 01:11:52;;;;;;;17.50;12.60;;;;;;;;;;7360517;19;20138;-79
2022/03/20 01:14:21;;;;;;;19.00;13.30;;;;;;;;;;7352537;19;20180;-78
2022/03/20 01:16:51;;;;;;;22.65;13.88;;;;;;;;;;7356302;19;20147;-78
2022/03/20 01:19:21;;;;;;;19.20;14.05;;;;;;;;;;7355121;19;20144;-77
2022/03/20 01:21:51;;;;;;;20.95;13.90;;;;;;;;;;7358064;19;20227;-77
2022/03/20 01:24:22;;;;;;;20.13;13.82;;;;;;;;;;7344611;19;20164;-77
2022/03/20 01:26:54;;;;;;;19.80;13.40;;;;;;;;;;7353418;19;20187;-78
2022/03/20 01:29:24;;;;;;;16.75;13.77;;;;;;;;;;7340566;19;20139;-77
2022/03/20 01:31:57;;;;;;;20.58;13.98;;;;;;;;;;7350277;19;20162;-78
2022/03/20 01:34:26;;;;;;;20.35;13.45;;;;;;;;;;7341973;19;20132;-77
2022/03/20 01:36:57;;;;;;;21.73;13.98;;;;;;;;;;7345715;19;20738;-77
2022/03/20 01:39:26;;;;;;;17.58;13.10;;;;;;;;;;7349223;19;20154;-76
2022/03/20 01:41:59;;;;;;;18.55;13.15;;;;;;;;;;7373130;19;20127;-78
2022/03/20 01:44:32;;;;;;;17.27;12.60;;;;;;;;;;7383438;19;20120;-77
2022/03/20 01:47:02;;;;;;;20.40;13.75;;;;;;;;;;7385457;19;20143;-78
2022/03/20 01:49:32;;;;;;;19.08;13.70;;;;;;;;;;7385719;19;20146;-78
2022/03/20 01:52:14;;;;;;;18.25;12.63;;;;;;;;;;7388942;19;20161;-77
2022/03/20 01:54:45;;;;;;;19.60;12.82;;;;;;;;;;7391198;19;20146;-77
2022/03/20 01:57:20;;;;;;;18.27;13.57;;;;;;;;;;7388379;19;20223;-77
2022/03/20 01:59:50;;;;;;;21.00;13.85;;;;;;;;;;7398702;19;20123;-78
2022/03/20 02:02:19;;;;;;;16.45;12.15;;;;;;;;;;7404947;19;20123;-77
2022/03/20 02:04:49;;;;;;;19.35;11.95;;;;;;;;;;7408798;19;20128;-78
2022/03/20 02:07:20;;;;;;;19.45;13.73;;;;;;;;;;7407654;19;20171;-78
2022/03/20 02:09:50;;;;;;;19.85;13.13;;;;;;;;;;7408375;19;20143;-78
2022/03/20 02:12:22;;;;;;;20.15;13.55;;;;;;;;;;7416047;19;20144;-77
2022/03/20 02:14:52;;;;;;;19.27;13.77;;;;;;;;;;7423139;19;20135;-78
2022/03/20 02:17:21;;;;;;;21.35;13.85;;;;;;;;;;7419824;19;20127;-78
2022/03/20 02:19:52;;;;;;;19.80;14.63;;;;;;;;;;7411485;19;20154;-78
2022/03/20 02:22:24;;;;;;;22.08;14.30;;;;;;;;;;7388417;19;20139;-78
2022/03/20 02:24:54;;;;;;;21.83;15.70;;;;;;;;;;7382004;19;20138;-78
2022/03/20 02:27:26;;;;;;;19.50;13.65;;;;;;;;;;7370481;19;20135;-78
2022/03/20 02:29:56;;;;;;;21.60;13.57;;;;;;;;;;7375265;19;20155;-78
2022/03/20 02:32:27;;;;;;;23.73;12.93;;;;;;;;;;7372645;19;20139;-78
2022/03/20 02:34:56;;;;;;;20.02;12.75;;;;;;;;;;7362546;19;22085;-77
2022/03/20 02:37:29;;;;;;;22.65;14.38;;;;;;;;;;7367002;19;20147;-78
2022/03/20 02:40:00;;;;;;;18.25;13.65;;;;;;;;;;7364438;19;20135;-77
2022/03/20 02:42:31;;;;;;;21.15;13.00;;;;;;;;;;7368630;19;20631;-78
2022/03/20 02:45:03;;;;;;;22.80;14.30;;;;;;;;;;7370372;19;20132;-78
2022/03/20 02:47:34;;;;;;;22.17;14.20;;;;;;;;;;7361968;19;20151;-78
2022/03/20 02:50:06;;;;;;;19.13;12.73;;;;;;;;;;7362558;19;20223;-77
2022/03/20 02:52:45;;;;;;;19.50;14.05;;;;;;;;;;7358050;19;20144;-78
2022/03/20 02:55:16;;;;;;;20.60;13.32;;;;;;;;;;7354757;19;20186;-76
2022/03/20 02:57:47;;;;;;;18.23;13.73;;;;;;;;;;7358118;19;20615;-77
2022/03/20 03:00:21;;;;;;;19.15;13.05;;;;;;;;;;7368338;19;20164;-77
2022/03/20 03:02:51;;;;;;;21.98;13.98;;;;;;;;;;7365120;19;20143;-77
2022/03/20 03:05:21;;;;;;;18.45;13.10;;;;;;;;;;7353995;19;20227;-77
2022/03/20 03:10:59;;;;;;;19.88;12.43;;;;;;;;;;7350340;19;20148;-77
2022/03/20 03:13:35;;;;;;;21.38;13.10;;;;;;;;;;7347448;19;20146;-77
2022/03/20 03:16:06;;;;;;;26.73;14.57;;;;;;;;;;7359200;19;20131;-77
2022/03/20 03:18:36;;;;;;;19.92;13.80;;;;;;;;;;7348337;19;20239;-77
2022/03/20 03:21:06;;;;;;;15.90;12.10;;;;;;;;;;7359610;19;20801;-76
2022/03/20 03:23:38;;;;;;;22.90;14.20;;;;;;;;;;7356249;19;20519;-77
2022/03/20 03:26:08;;;;;;;21.52;13.52;;;;;;;;;;7360541;19;20142;-77
2022/03/20 03:28:38;;;;;;;19.92;14.45;;;;;;;;;;7370587;19;20135;-78
2022/03/20 03:31:08;;;;;;;23.38;15.02;;;;;;;;;;7363556;19;20174;-77
2022/03/20 03:35:41;;;;;;;20.90;14.20;;;;;;;;;;7351691;19;20156;-78
2022/03/20 03:36:27;;;;;;;19.17;14.60;;;;;;;;;;7354260;19;20195;-78
2022/03/20 03:39:01;;;;;;;19.25;12.52;;;;;;;;;;7348966;19;20906;-78
2022/03/20 03:41:31;;;;;;;19.08;13.57;;;;;;;;;;7353118;19;20146;-78
2022/03/20 03:44:01;;;;;;;20.02;13.23;;;;;;;;;;7357193;19;20139;-77
2022/03/20 03:46:31;;;;;;;21.67;14.45;;;;;;;;;;7367134;19;20140;-79
2022/03/20 03:49:01;;;;;;;24.10;14.75;;;;;;;;;;7353277;19;20793;-75
2022/03/20 03:51:31;;;;;;;24.60;14.40;;;;;;;;;;7352110;19;20782;-76
2022/03/20 03:54:03;;;;;;;20.45;12.80;;;;;;;;;;7365418;19;20156;-74
2022/03/20 03:56:33;;;;;;;20.92;14.13;;;;;;;;;;7355239;19;20164;-75
2022/03/20 03:59:03;;;;;;;21.80;15.57;;;;;;;;;;7362223;19;20211;-76
2022/03/20 04:01:33;;;;;;;23.08;14.80;;;;;;;;;;7363426;19;20144;-76
2022/03/20 04:04:02;;;;;;;22.33;15.70;;;;;;;;;;7366969;19;20567;-77
2022/03/20 04:06:32;;;;;;;29.48;15.27;;;;;;;;;;7364750;19;20136;-76
2022/03/20 04:09:04;;;;;;;18.67;14.00;;;;;;;;;;7370261;19;20143;-82
2022/03/20 04:11:34;;;;;;;22.40;14.48;;;;;;;;;;7370481;19;20147;-76
2022/03/20 04:14:03;;;;;;;20.25;13.30;;;;;;;;;;7381462;19;20570;-75
2022/03/20 04:16:33;;;;;;;24.73;15.20;;;;;;;;;;7377066;19;20178;-76
2022/03/20 04:19:03;;;;;;;24.13;14.55;;;;;;;;;;7381186;19;20511;-76
2022/03/20 04:21:33;;;;;;;23.80;14.90;;;;;;;;;;7367663;19;20222;-76
2022/03/20 04:24:05;;;;;;;24.67;15.27;;;;;;;;;;7370957;19;20595;-77
2022/03/20 04:26:35;;;;;;;22.85;15.18;;;;;;;;;;7374861;19;20150;-75
2022/03/20 04:29:04;;;;;;;21.65;14.05;;;;;;;;;;7364754;19;20145;-76
2022/03/20 04:31:34;;;;;;;19.33;15.27;;;;;;;;;;7370166;19;20632;-76
2022/03/20 04:34:04;;;;;;;21.88;14.50;;;;;;;;;;7367264;19;20162;-76
2022/03/20 04:36:34;;;;;;;20.98;15.27;;;;;;;;;;7365632;19;20139;-75
2022/03/20 04:39:06;;;;;;;26.25;16.98;;;;;;;;;;7365550;19;20261;-76
2022/03/20 04:41:36;;;;;;;23.95;15.95;;;;;;;;;;7356738;19;20143;-76
2022/03/20 04:44:12;;;;;;;23.63;15.07;;;;;;;;;;7349456;19;20132;-76
2022/03/20 04:46:41;;;;;;;22.85;15.70;;;;;;;;;;7342179;19;20154;-76
2022/03/20 05:00:01;;;;;;;25.25;15.73;;;;;;;;;;7354463;19;20139;-75
2022/03/20 05:02:31;;;;;;;24.00;15.65;;;;;;;;;;7343352;19;21930;-76
2022/03/20 05:05:01;;;;;;;21.35;15.75;;;;;;;;;;7353609;19;20908;-76
2022/03/20 05:07:30;;;;;;;23.35;14.05;;;;;;;;;;7353904;19;20156;-75
2022/03/20 05:15:29;;;;;;;31.05;16.63;;;;;;;;;;7352070;19;20651;-75
2022/03/20 05:17:59;;;;;;;21.25;15.55;;;;;;;;;;7336720;19;21038;-75
2022/03/20 05:20:28;;;;;;;25.55;16.88;;;;;;;;;;7345697;19;23958;-76
2022/03/20 05:22:58;;;;;;;24.73;16.20;;;;;;;;;;7367086;19;20130;-75
2022/03/20 05:25:31;;;;;;;25.90;16.15;;;;;;;;;;7390571;19;20127;-76
2022/03/20 05:28:01;;;;;;;23.00;14.45;;;;;;;;;;7390619;19;20150;-75
2022/03/20 05:30:30;;;;;;;25.10;17.05;;;;;;;;;;7383941;19;20139;-75
2022/03/20 05:33:00;;;;;;;24.85;16.35;;;;;;;;;;7396823;19;20139;-74
2022/03/20 05:35:31;;;;;;;24.08;16.33;;;;;;;;;;7376315;19;20157;-74
2022/03/20 05:38:01;;;;;;;24.38;16.60;;;;;;;;;;7387824;19;20172;-74
2022/03/20 05:40:33;;;;;;;25.38;17.20;;;;;;;;;;7391000;19;20132;-75
2022/03/20 05:43:02;;;;;;;28.88;17.15;;;;;;;;;;7410250;19;20149;-76
2022/03/20 05:45:34;;;;;;;25.83;16.70;;;;;;;;;;7413596;19;20549;-74
2022/03/20 05:48:03;;;;;;;23.88;15.50;;;;;;;;;;7422032;19;20120;-75
2022/03/20 05:50:33;;;;;;;27.27;18.67;;;;;;;;;;7413517;19;20123;-74
2022/03/20 05:53:03;;;;;;;24.58;17.33;;;;;;;;;;7423241;19;20136;-75
2022/03/20 05:58:17;;;;;;;24.40;17.35;;;;;;;;;;7379682;19;20139;-76
2022/03/20 06:00:46;;;;;;;23.45;16.58;;;;;;;;;;7385612;19;20143;-76
2022/03/20 06:03:17;;;;;;;24.55;16.27;;;;;;;;;;7377887;19;20710;-76
2022/03/20 06:05:47;;;;;;;20.63;16.15;;;;;;;;;;7379790;19;20135;-76
2022/03/20 06:08:21;;;;;;;26.05;17.45;;;;;;;;;;7376949;19;20830;-75
2022/03/20 06:10:54;;;;;;;22.20;15.88;;;;;;;;;;7377739;19;20494;-76
2022/03/20 06:13:24;;;;;;;23.75;17.90;;;;;;;;;;7371199;19;20151;-75
2022/03/20 06:15:57;;;;;;;23.48;16.70;;;;;;;;;;7373218;19;20153;-75
2022/03/20 06:18:27;;;;;;;22.52;16.23;;;;;;;;;;7371603;19;20132;-76
2022/03/20 06:20:57;;;;;;;24.30;17.25;;;;;;;;;;7370397;19;20139;-80
2022/03/20 06:23:27;;;;;;;27.33;16.90;;;;;;;;;;7374306;19;20234;-77
2022/03/20 06:25:59;;;;;;;25.60;18.58;;;;;;;;;;7369525;19;20143;-74
2022/03/20 06:28:29;;;;;;;25.08;17.27;;;;;;;;;;7354928;19;20165;-76
2022/03/20 06:30:58;;;;;;;23.33;17.77;;;;;;;;;;7350422;19;21033;-78
2022/03/20 06:33:30;;;;;;;29.95;18.40;;;;;;;;;;7356385;19;20238;-74
2022/03/20 06:36:01;;;;;;;25.73;18.48;;;;;;;;;;7359966;19;20147;-75
2022/03/20 06:38:30;;;;;;;27.50;18.10;;;;;;;;;;7345786;19;20167;-75
2022/03/20 06:41:03;;;;;;;24.88;17.83;;;;;;;;;;7345095;19;20153;-73
2022/03/20 06:43:33;;;;;;;28.10;18.40;;;;;;;;;;7351433;19;20136;-79
2022/03/20 06:46:05;;;;;;;24.35;16.30;;;;;;;;;;7361495;19;20143;-77
2022/03/20 06:48:35;;;;;;;25.80;17.35;;;;;;;;;;7358887;19;20140;-79
2022/03/20 06:51:05;;;;;;;26.95;17.60;;;;;;;;;;7354520;19;20925;-76
2022/03/20 06:53:35;;;;;;;27.38;18.50;;;;;;;;;;7351138;19;22004;-76
2022/03/20 06:56:08;;;;;;;25.55;18.65;;;;;;;;;;7349887;19;20187;-77
2022/03/20 06:58:39;;;;;;;28.85;18.80;;;;;;;;;;7368686;19;20153;-76
2022/03/20 07:01:09;;;;;;;26.20;17.33;;;;;;;;;;7362473;19;20154;-77
2022/03/20 07:03:39;;;;;;;26.63;17.88;;;;;;;;;;7355927;19;20735;-75
2022/03/20 07:06:08;;;;;;;28.13;19.40;;;;;;;;;;7362009;19;20138;-75
2022/03/20 07:08:38;;;;;;;27.77;18.25;;;;;;;;;;7352640;19;22147;-75
2022/03/20 07:11:13;;;;;;;25.35;18.30;;;;;;;;;;7365307;19;20139;-77
2022/03/20 07:13:53;;;;;;;26.05;18.95;;;;;;;;;;7363346;19;20131;-78
2022/03/20 07:16:29;;;;;;;23.60;18.30;;;;;;;;;;7364316;19;20525;-78
2022/03/20 07:18:59;;;;;;;26.35;17.83;;;;;;;;;;7357960;19;20171;-78
2022/03/20 07:21:32;;;;;;;22.17;16.53;;;;;;;;;;7347169;19;20704;-77
2022/03/20 07:24:01;;;;;;;23.67;17.65;;;;;;;;;;7345504;19;20772;-79
2022/03/20 07:31:58;;;;;;;28.03;18.67;;;;;;;;;;7372286;19;20404;-80
2022/03/20 07:34:27;;;;;;;25.27;18.33;;;;;;;;;;7378328;19;20928;-80
2022/03/20 07:36:57;;;;;;;28.00;18.90;;;;;;;;;;7373967;19;20415;-80
2022/03/20 07:39:27;;;;;;;24.20;18.07;;;;;;;;;;7370305;19;21221;-79
2022/03/20 07:41:59;;;;;;;28.83;19.40;;;;;;;;;;7364098;19;20384;-80
2022/03/20 07:44:32;;;;;;;28.67;19.50;;;;;;;;;;7368563;19;20432;-78
2022/03/20 07:47:02;;;;;;;27.13;18.50;;;;;;;;;;7370880;19;20379;-82
2022/03/20 07:49:33;;;;;;;29.10;20.50;;;;;;;;;;7375250;19;20429;-81
2022/03/20 07:52:05;;;;;;;30.47;19.77;;;;;;;;;;7375244;19;20497;-88
2022/03/20 07:54:36;;;;;;;26.40;19.67;;;;;;;;;;7371955;19;20436;-84
2022/03/20 07:57:08;;;;;;;28.17;18.90;;;;;;;;;;7359339;19;20428;-79
2022/03/20 07:59:38;;;;;;;30.83;19.53;;;;;;;;;;7359123;19;20420;-83
2022/03/20 08:02:08;;;;;;;26.70;19.23;;;;;;;;;;7349046;19;20506;-83
2022/03/20 08:04:38;;;;;;;26.90;18.83;;;;;;;;;;7356586;19;20416;-81
2022/03/20 08:07:08;;;;;;;28.50;21.17;;;;;;;;;;7353835;19;21479;-82
2022/03/20 08:09:37;;;;;;;28.90;21.37;;;;;;;;;;7346247;19;20409;-79
2022/03/20 08:12:10;;;;;;;29.40;20.37;;;;;;;;;;7362674;19;20926;-81
2022/03/20 08:14:41;;;;;;;29.63;20.03;;;;;;;;;;7368444;19;20421;-76
2022/03/20 08:17:10;;;;;;;30.70;21.80;;;;;;;;;;7361215;19;20419;-80
2022/03/20 08:19:40;;;;;;;25.70;19.30;;;;;;;;;;7380337;19;20859;-82
2022/03/20 08:22:12;;;;;;;30.07;21.03;;;;;;;;;;7373668;19;20415;-77
2022/03/20 08:24:46;;;;;;;26.50;18.50;;;;;;;;;;7378381;19;20765;-76
2022/03/20 08:27:20;;;;;;;26.77;18.87;;;;;;;;;;7380375;19;20384;-76
2022/03/20 08:29:50;;;;;;;29.47;20.03;;;;;;;;;;7381002;19;20403;-76
2022/03/20 08:32:22;;;;;;;27.70;20.90;;;;;;;;;;7377211;19;20419;-76
2022/03/20 08:34:52;;;;;;;27.57;19.70;;;;;;;;;;7374860;19;21125;-76
2022/03/20 08:37:21;;;;;;;26.50;19.90;;;;;;;;;;7379298;19;20436;-76
2022/03/20 08:39:51;;;;;;;26.97;21.40;;;;;;;;;;7396107;19;20401;-77
2022/03/20 08:42:26;;;;;;;25.47;20.43;;;;;;;;;;7413134;19;20401;-78
2022/03/20 08:44:55;;;;;;;26.90;20.90;;;;;;;;;;7415453;19;20433;-80
2022/03/20 08:47:31;;;;;;;28.17;20.10;;;;;;;;;;7408552;19;20424;-76
2022/03/20 08:50:00;;;;;;;25.10;20.40;;;;;;;;;;7403846;19;21308;-80
2022/03/20 08:52:32;;;;;;;22.43;19.80;;;;;;;;;;7415658;19;20413;-81
2022/03/20 08:55:09;;;;;;;23.57;21.03;;;;;;;;;;7412350;19;20457;-80
2022/03/20 08:57:43;;;;;;;26.37;21.40;;;;;;;;;;7414705;19;20404;-79
2022/03/20 09:00:13;;;;;;;25.00;21.43;;;;;;;;;;7415094;19;20416;-81
2022/03/20 09:02:45;;;;;;;23.40;20.33;;;;;;;;;;7409466;19;20416;-80
2022/03/20 09:05:15;;;;;;;28.40;23.30;;;;;;;;;;7414486;19;20409;-81
2022/03/20 09:07:45;;;;;;;23.07;20.63;;;;;;;;;;7411995;19;20400;-81
2022/03/20 09:10:15;;;;;;;24.63;21.67;;;;;;;;;;7371468;19;20876;-81
2022/03/20 09:12:50;;;;;;;20.37;18.17;;;;;;;;;;7366871;19;20856;-81
2022/03/20 09:15:20;;;;;;;22.50;20.10;;;;;;;;;;7372295;19;20372;-85
2022/03/20 09:20:32;;;;;;;22.20;19.83;;;;;;;;;;7370663;19;20415;-83
2022/03/20 09:23:02;;;;;;;20.67;18.33;;;;;;;;;;7363522;19;20416;-82
2022/03/20 09:25:32;;;;;;;20.10;17.97;;;;;;;;;;7369023;19;20408;-79
2022/03/20 09:28:05;;;;;;;22.10;18.00;;;;;;;;;;7373689;19;20427;-79
2022/03/20 09:30:34;;;;;;;20.93;17.13;;;;;;;;;;7377364;19;20865;-81
2022/03/20 09:33:05;;;;;;;21.07;18.80;;;;;;;;;;7378510;19;20419;-83
2022/03/20 09:35:34;;;;;;;22.00;19.50;;;;;;;;;;7377461;19;20407;-80
2022/03/20 09:38:04;;;;;;;20.77;18.30;;;;;;;;;;7379629;19;20416;-75
2022/03/20 09:40:37;;;;;;;19.43;17.50;;;;;;;;;;7376446;19;20451;-76
2022/03/20 09:43:09;;;;;;;20.07;17.60;;;;;;;;;;7374491;19;20416;-77
2022/03/20 09:45:40;;;;;;;20.20;18.00;;;;;;;;;;7372203;19;20424;-78
2022/03/20 09:48:10;;;;;;;20.80;18.43;;;;;;;;;;7377427;19;21087;-78
2022/03/20 09:50:40;;;;;;;20.70;18.50;;;;;;;;;;7364680;19;20364;-77
2022/03/20 09:53:10;;;;;;;18.73;16.83;;;;;;;;;;7368292;19;20431;-78
2022/03/20 09:55:39;;;;;;;21.53;18.17;;;;;;;;;;7374370;19;20427;-78
2022/03/20 09:58:12;;;;;;;19.10;15.80;;;;;;;;;;7371245;19;20408;-77
2022/03/20 10:00:42;;;;;;;20.20;17.30;;;;;;;;;;7374514;19;20439;-82
2022/03/20 10:03:18;;;;;;;20.90;18.00;;;;;;;;;;7372378;19;20393;-83
2022/03/20 10:06:04;;;;;;;22.00;18.07;;;;;;;;;;7365401;19;20408;-80
2022/03/20 10:08:35;;;;;;;21.13;18.33;;;;;;;;;;7375688;19;20994;-85
2022/03/20 10:11:18;;;;;;;21.07;17.30;;;;;;;;;;7371620;19;20990;-81
2022/03/20 10:14:05;;;;;;;17.57;15.37;;;;;;;;;;7367132;19;20846;-82
2022/03/20 10:16:40;;;;;;;19.80;17.70;;;;;;;;;;7365679;19;20368;-79
2022/03/20 10:19:25;;;;;;;18.17;16.30;;;;;;;;;;7365882;19;20393;-77
2022/03/20 10:21:55;;;;;;;20.53;16.40;;;;;;;;;;7365475;19;20396;-78
2022/03/20 10:24:25;;;;;;;18.47;15.87;;;;;;;;;;7375608;19;20519;-78
2022/03/20 10:26:56;;;;;;;19.40;16.33;;;;;;;;;;7372651;19;20377;-78
2022/03/20 10:29:28;;;;;;;18.03;15.90;;;;;;;;;;7370107;19;20948;-78
2022/03/20 10:32:06;;;;;;;21.70;16.03;;;;;;;;;;7380448;19;20380;-78
2022/03/20 10:34:48;;;;;;;15.60;14.00;;;;;;;;;;7379795;19;21066;-79
2022/03/20 10:37:18;;;;;;;19.43;15.43;;;;;;;;;;7373895;19;20431;-78
2022/03/20 10:39:48;;;;;;;20.87;15.90;;;;;;;;;;7377871;19;20418;-76
2022/03/20 10:42:20;;;;;;;19.60;15.30;;;;;;;;;;7381769;19;20419;-78
2022/03/20 10:44:50;;;;;;;23.47;16.03;;;;;;;;;;7378264;19;20408;-78
2022/03/20 10:47:22;;;;;;;18.17;14.80;;;;;;;;;;7375455;19;20405;-78
2022/03/20 10:50:03;;;;;;;25.70;15.83;;;;;;;;;;7379888;19;20393;-78
2022/03/20 10:52:35;;;;;;;19.13;15.80;;;;;;;;;;7377025;19;20785;-78
2022/03/20 10:55:10;;;;;;;21.60;15.00;;;;;;;;;;7377739;19;20445;-77
2022/03/20 10:57:39;;;;;;;18.07;13.60;;;;;;;;;;7378033;19;20513;-78
2022/03/20 11:00:10;;;;;;;20.33;14.40;;;;;;;;;;7381499;19;20467;-78
2022/03/20 11:02:43;;;;;;;18.27;14.57;;;;;;;;;;7370255;19;20916;-80
2022/03/20 11:05:13;;;;;;;18.03;14.60;;;;;;;;;;7377109;19;20492;-78
2022/03/20 11:07:43;;;;;;;20.20;14.10;;;;;;;;;;7375416;19;20404;-78
2022/03/20 11:10:14;;;;;;;19.23;15.33;;;;;;;;;;7380401;19;20372;-78
2022/03/20 11:12:44;;;;;;;22.17;14.30;;;;;;;;;;7380471;19;20446;-79
2022/03/20 11:15:14;;;;;;;18.50;14.60;;;;;;;;;;7373990;19;20408;-77
2022/03/20 11:17:48;;;;;;;16.13;14.07;;;;;;;;;;7378146;19;20434;-78
2022/03/20 11:20:18;;;;;;;17.73;14.50;;;;;;;;;;7379752;19;20961;-78
2022/03/20 11:22:53;;;;;;;22.13;13.60;;;;;;;;;;7380832;19;20415;-78
2022/03/20 11:25:25;;;;;;;17.30;13.30;;;;;;;;;;7410571;19;20371;-76
2022/03/20 11:28:01;;;;;;;22.10;15.53;;;;;;;;;;7415470;19;20405;-77
2022/03/20 11:30:31;;;;;;;16.40;13.90;;;;;;;;;;7411389;19;20380;-76
2022/03/20 11:33:09;;;;;;;20.23;14.50;;;;;;;;;;7418145;19;20389;-79
2022/03/20 11:35:39;;;;;;;17.00;13.60;;;;;;;;;;7403295;19;21165;-73
2022/03/20 11:38:16;;;;;;;16.13;13.80;;;;;;;;;;7409729;19;20367;-76
2022/03/20 11:41:00;;;;;;;22.53;14.37;;;;;;;;;;7418535;19;20407;-77
2022/03/20 11:43:30;;;;;;;16.47;13.43;;;;;;;;;;7406595;19;20396;-77
2022/03/20 11:46:15;;;;;;;16.63;13.77;;;;;;;;;;7408257;19;20416;-76
2022/03/20 11:48:47;;;;;;;15.03;12.60;;;;;;;;;;7412447;19;20437;-77
2022/03/20 11:51:17;;;;;;;11.63;10.53;;;;;;;;;;7407535;19;20385;-79
2022/03/20 11:53:47;;;;;;;15.70;11.50;;;;;;;;;;7379059;19;21056;-79
2022/03/20 11:56:31;;;;;;;14.77;11.07;;;;;;;;;;7382910;19;20468;-78
2022/03/20 11:59:01;;;;;;;12.57;10.67;;;;;;;;;;7373095;19;21081;-76
2022/03/20 12:01:30;;;;;;;15.77;12.27;;;;;;;;;;7374162;19;20411;-77
2022/03/20 12:04:08;;;;;;;16.20;11.90;;;;;;;;;;7377944;19;20376;-79
2022/03/20 12:07:06;;;;;;;14.40;11.53;;;;;;;;;;7378510;19;20408;-80
2022/03/20 12:09:40;;;;;;;12.73;11.30;;;;;;;;;;7376898;19;20710;-75
2022/03/20 12:12:19;;;;;;;19.13;11.30;;;;;;;;;;7379804;19;20423;-76
2022/03/20 12:14:53;;;;;;;12.37;10.00;;;;;;;;;;7373042;19;20424;-75
2022/03/20 12:17:23;;;;;;;13.80;10.27;;;;;;;;;;7370621;19;20836;-75
2022/03/20 12:19:57;;;;;;;12.10;10.77;;;;;;;;;;7380606;19;20427;-79
2022/03/20 12:22:33;;;;;;;14.17;12.07;;;;;;;;;;7378189;19;20392;-77
2022/03/20 12:25:04;;;;;;;15.07;11.90;;;;;;;;;;7359013;19;20894;-81
2022/03/20 12:27:42;;;;;;;14.20;12.10;;;;;;;;;;7359926;19;20404;-74
2022/03/20 12:30:32;;;;;;;17.17;12.33;;;;;;;;;;7373036;19;20407;-75
2022/03/20 12:33:02;;;;;;;16.67;13.13;;;;;;;;;;7368496;19;20474;-75
2022/03/20 12:35:45;;;;;;;15.60;12.67;;;;;;;;;;7373773;19;20819;-76
2022/03/20 12:38:30;;;;;;;13.60;11.70;;;;;;;;;;7375044;19;20404;-76
2022/03/20 12:40:59;;;;;;;13.83;11.97;;;;;;;;;;7364158;19;20975;-74
2022/03/20 12:43:30;;;;;;;13.40;10.90;;;;;;;;;;7361379;19;20966;-76
2022/03/20 12:46:00;;;;;;;16.57;11.03;;;;;;;;;;7372863;19;20447;-75
2022/03/20 12:48:32;;;;;;;13.77;11.20;;;;;;;;;;7359763;19;20512;-76
2022/03/20 12:51:14;;;;;;;15.53;11.43;;;;;;;;;;7373289;19;20411;-76
2022/03/20 12:53:46;;;;;;;15.37;11.30;;;;;;;;;;7374371;19;20930;-75
2022/03/20 12:56:20;;;;;;;13.87;9.47;;;;;;;;;;7370096;19;21150;-78
2022/03/20 12:58:50;;;;;;;11.40;9.53;;;;;;;;;;7363992;19;20434;-75
2022/03/20 13:01:22;;;;;;;12.60;11.00;;;;;;;;;;7364787;19;20380;-76
2022/03/20 13:03:54;;;;;;;13.87;11.63;;;;;;;;;;7371361;19;20412;-78
2022/03/20 13:06:32;;;;;;;11.37;10.27;;;;;;;;;;7374782;19;20420;-78
2022/03/20 13:09:02;;;;;;;11.30;10.10;;;;;;;;;;7379907;19;20418;-77
2022/03/20 13:14:15;;;;;;;11.60;9.73;;;;;;;;;;7368541;19;20393;-76
2022/03/20 13:16:50;;;;;;;12.80;10.83;;;;;;;;;;7350144;19;21142;-77
2022/03/20 13:19:33;;;;;;;13.80;10.13;;;;;;;;;;7375516;19;21256;-76
2022/03/20 13:22:10;;;;;;;12.77;10.50;;;;;;;;;;7375366;19;20686;-77
2022/03/20 13:24:40;;;;;;;11.93;10.63;;;;;;;;;;7370391;19;20416;-77
2022/03/20 13:27:10;;;;;;;14.33;10.43;;;;;;;;;;7372235;19;20506;-79
2022/03/20 13:29:42;;;;;;;14.37;12.97;;;;;;;;;;7375114;19;20424;-79
2022/03/20 13:32:13;;;;;;;14.57;12.60;;;;;;;;;;7378796;19;20411;-80
2022/03/20 13:34:46;;;;;;;15.10;13.20;;;;;;;;;;7372177;19;20412;-76
2022/03/20 13:37:19;;;;;;;14.40;11.47;;;;;;;;;;7375021;19;20392;-76
2022/03/20 13:39:50;;;;;;;13.47;12.03;;;;;;;;;;7371150;19;20431;-76
2022/03/20 13:42:23;;;;;;;18.60;14.10;;;;;;;;;;7371547;19;20404;-77
2022/03/20 13:44:54;;;;;;;17.50;12.73;;;;;;;;;;7365109;19;20420;-77
2022/03/20 13:47:24;;;;;;;13.37;12.00;;;;;;;;;;7362055;19;20416;-78
2022/03/20 13:49:57;;;;;;;14.03;12.10;;;;;;;;;;7358229;19;20401;-78
2022/03/20 13:52:32;;;;;;;12.83;10.73;;;;;;;;;;7374431;19;21188;-78
2022/03/20 13:55:06;;;;;;;16.07;12.50;;;;;;;;;;7373457;19;20767;-77
2022/03/20 13:57:36;;;;;;;14.87;12.23;;;;;;;;;;7376284;19;20416;-76
2022/03/20 14:00:11;;;;;;;17.80;12.30;;;;;;;;;;7373307;19;21394;-78
2022/03/20 14:02:44;;;;;;;12.63;11.00;;;;;;;;;;7378511;19;20404;-78
2022/03/20 14:05:21;;;;;;;13.30;11.30;;;;;;;;;;7377374;19;20395;-76
2022/03/20 14:08:03;;;;;;;13.90;12.50;;;;;;;;;;7403436;19;20380;-74
2022/03/20 14:10:36;;;;;;;12.47;10.73;;;;;;;;;;7374787;19;20416;-77
2022/03/20 14:13:19;;;;;;;13.47;10.70;;;;;;;;;;7407046;19;20452;-74
2022/03/20 14:15:56;;;;;;;14.17;10.50;;;;;;;;;;7392531;19;20417;-75
2022/03/20 14:18:26;;;;;;;25.27;10.90;;;;;;;;;;7394893;19;20419;-74
2022/03/20 14:21:10;;;;;;;15.73;10.70;;;;;;;;;;7401168;19;20412;-75
2022/03/20 14:23:54;;;;;;;11.43;9.70;;;;;;;;;;7404105;19;20408;-74
2022/03/20 14:26:23;;;;;;;12.67;10.30;;;;;;;;;;7415909;19;20384;-72
2022/03/20 14:29:03;;;;;;;12.93;10.03;;;;;;;;;;7412724;19;20405;-71
2022/03/20 14:39:49;;;;;;;15.03;10.97;;;;;;;;;;7382596;19;20380;-85
2022/03/20 14:42:27;;;;;;;12.23;9.97;;;;;;;;;;7386504;19;21313;-85
2022/03/20 14:44:57;;;;;;;15.70;10.40;;;;;;;;;;7379934;19;20734;-84
2022/03/20 14:47:29;;;;;;;18.60;12.80;;;;;;;;;;7382816;19;20400;-86
2022/03/20 14:49:59;;;;;;;15.63;10.33;;;;;;;;;;7378960;19;20412;-82
2022/03/20 14:52:28;;;;;;;14.13;10.30;;;;;;;;;;7379427;19;20393;-85
2022/03/20 14:55:04;;;;;;;14.00;9.93;;;;;;;;;;7369225;19;20916;-81
2022/03/20 14:57:34;;;;;;;15.57;10.97;;;;;;;;;;7375834;19;20419;-79
2022/03/20 15:00:03;;;;;;;14.73;11.30;;;;;;;;;;7373506;19;20451;-81
2022/03/20 15:02:33;;;;;;;16.27;11.77;;;;;;;;;;7373686;19;20408;-81
2022/03/20 15:05:03;;;;;;;18.43;12.80;;;;;;;;;;7372478;19;20392;-81
2022/03/20 15:07:35;;;;;;;18.07;13.27;;;;;;;;;;7374541;19;20408;-83
2022/03/20 15:12:50;;;;;;;18.27;14.20;;;;;;;;;;7370361;19;20948;-78
2022/03/20 15:15:21;;;;;;;27.03;15.73;;;;;;;;;;7370948;19;21216;-77
2022/03/20 15:17:50;;;;;;;18.23;13.70;;;;;;;;;;7383643;19;20368;-79
2022/03/20 15:20:22;;;;;;;22.13;16.30;;;;;;;;;;7377587;19;20372;-79
2022/03/20 15:22:52;;;;;;;22.40;15.03;;;;;;;;;;7381640;19;20372;-77
2022/03/20 15:25:25;;;;;;;15.40;12.77;;;;;;;;;;7371765;19;20402;-78
2022/03/20 15:27:54;;;;;;;20.90;14.93;;;;;;;;;;7368179;19;20408;-78